Portada
METAR-TAF:

METAR-TAF

Aeroports :

Tingo María, Perú

latitud: 09-17-15S, longitud: 076-00-18W, altitud: 654 m

Observació

L'informe es va fer fa 1 hora i 1 minuts, a les 18:00 UTC
Vent 2 kt del Est
Temperatura 29°C
Humitat 62%
Pressió 1011 hPa
Visibilitat 10 km o més
Escasses núvols a una alçada de 4000 ft
Cel ennuvolat a una alçada de 10000 ft

METAR: SPGM 101800Z 08002KT 9999 FEW040 BKN100 29/21 Q1011 RMK BIRD HAZARD RWY 19 PP000

Hora: 14:01 (19:01 UTC)

Pronòstic

L'informe es va fer fa 2 hores i 22 minuts, a les 16:39 UTC
Pronòstic vàlid del 10 a les 18 UTC al 11 a les 18 UTC
Vent 5 kt del Nord
Visibilitat 10 km o més
Núvols disperses a una alçada de 3000 ft
Cel ennuvolat a una alçada de 9000 ft

TAF: SPGM 101639Z 1018/1118 36005KT 9999 SCT030 BKN090 TX29/1019Z TN20/1111Z

Observacions i pronòstics meteorològics de més de 4000 aeroports (METAR i TAF).

Les estacions disponibles són els punts grocs i vermells al mapa.

Posi el ratolí al punt desitjat per veure el nom de l'estació.

Feu clic per veure les observacions i els pronòstics meteorològics.

Per canviar el mapa: feu clic els botons verds amb una creu de color negre per apropar; al botó verd amb un guió per allunyar la imatge; o en les fletxes verdes per a mapes adjacents.


METAR-TAF: